sensor_id;sensor_type;location;lat;lon;timestamp;pressure;altitude;pressure_sealevel;temperature;humidity
20077;BME280;12348;42.710;23.378;2023-03-25T00:01:38;94857.38;;;9.04;100.00
20077;BME280;12348;42.710;23.378;2023-03-25T00:04:05;94867.38;;;9.22;100.00
20077;BME280;12348;42.710;23.378;2023-03-25T00:06:32;94862.78;;;9.46;100.00
20077;BME280;12348;42.710;23.378;2023-03-25T00:08:59;94865.59;;;9.36;100.00
20077;BME280;12348;42.710;23.378;2023-03-25T00:11:28;94862.53;;;9.24;100.00
20077;BME280;12348;42.710;23.378;2023-03-25T00:13:55;94860.50;;;9.16;100.00
20077;BME280;12348;42.710;23.378;2023-03-25T00:16:22;94861.41;;;9.06;100.00
20077;BME280;12348;42.710;23.378;2023-03-25T00:18:49;94853.22;;;9.16;100.00
20077;BME280;12348;42.710;23.378;2023-03-25T00:21:16;94847.41;;;9.09;100.00
20077;BME280;12348;42.710;23.378;2023-03-25T00:23:43;94851.28;;;8.98;100.00
20077;BME280;12348;42.710;23.378;2023-03-25T00:26:10;94844.91;;;8.94;100.00
20077;BME280;12348;42.710;23.378;2023-03-25T00:28:38;94838.31;;;8.81;100.00
20077;BME280;12348;42.710;23.378;2023-03-25T00:31:07;94834.38;;;8.73;100.00
20077;BME280;12348;42.710;23.378;2023-03-25T00:33:34;94832.59;;;8.88;100.00
20077;BME280;12348;42.710;23.378;2023-03-25T00:36:01;94844.59;;;8.71;100.00
20077;BME280;12348;42.710;23.378;2023-03-25T00:38:30;94839.25;;;8.42;100.00
20077;BME280;12348;42.710;23.378;2023-03-25T00:41:10;94842.28;;;8.31;100.00
20077;BME280;12348;42.710;23.378;2023-03-25T00:43:38;94841.19;;;8.32;100.00
20077;BME280;12348;42.710;23.378;2023-03-25T00:46:05;94830.78;;;8.25;100.00
20077;BME280;12348;42.710;23.378;2023-03-25T00:48:33;94831.22;;;8.08;100.00
20077;BME280;12348;42.710;23.378;2023-03-25T00:51:00;94838.53;;;7.97;100.00
20077;BME280;12348;42.710;23.378;2023-03-25T00:53:32;94831.28;;;7.98;100.00
20077;BME280;12348;42.710;23.378;2023-03-25T00:55:59;94837.53;;;7.88;100.00
20077;BME280;12348;42.710;23.378;2023-03-25T00:58:27;94830.13;;;7.75;100.00
20077;BME280;12348;42.710;23.378;2023-03-25T01:00:55;94828.97;;;7.86;100.00
20077;BME280;12348;42.710;23.378;2023-03-25T01:03:22;94816.66;;;7.85;100.00
20077;BME280;12348;42.710;23.378;2023-03-25T01:05:49;94825.78;;;7.84;100.00
20077;BME280;12348;42.710;23.378;2023-03-25T01:08:20;94827.44;;;7.75;100.00
20077;BME280;12348;42.710;23.378;2023-03-25T01:10:51;94819.34;;;7.80;100.00
20077;BME280;12348;42.710;23.378;2023-03-25T01:13:19;94816.22;;;7.68;100.00
20077;BME280;12348;42.710;23.378;2023-03-25T01:15:46;94817.97;;;7.48;100.00
20077;BME280;12348;42.710;23.378;2023-03-25T01:18:14;94809.97;;;7.43;100.00
20077;BME280;12348;42.710;23.378;2023-03-25T01:20:42;94811.59;;;7.39;100.00
20077;BME280;12348;42.710;23.378;2023-03-25T01:23:09;94815.94;;;7.30;100.00
20077;BME280;12348;42.710;23.378;2023-03-25T01:25:36;94808.66;;;7.41;100.00
20077;BME280;12348;42.710;23.378;2023-03-25T01:28:03;94815.94;;;7.30;100.00
20077;BME280;12348;42.710;23.378;2023-03-25T01:30:31;94799.09;;;7.24;100.00
20077;BME280;12348;42.710;23.378;2023-03-25T01:32:58;94791.16;;;7.04;100.00
20077;BME280;12348;42.710;23.378;2023-03-25T01:35:26;94783.72;;;6.91;100.00
20077;BME280;12348;42.710;23.378;2023-03-25T01:37:53;94785.94;;;6.73;100.00
20077;BME280;12348;42.710;23.378;2023-03-25T01:40:21;94787.28;;;6.71;100.00
20077;BME280;12348;42.710;23.378;2023-03-25T01:42:48;94789.75;;;6.52;100.00
20077;BME280;12348;42.710;23.378;2023-03-25T01:45:27;94777.97;;;6.58;100.00
20077;BME280;12348;42.710;23.378;2023-03-25T01:48:02;94782.28;;;6.49;100.00
20077;BME280;12348;42.710;23.378;2023-03-25T01:50:33;94784.69;;;6.45;100.00
20077;BME280;12348;42.710;23.378;2023-03-25T01:53:02;94778.06;;;6.32;100.00
20077;BME280;12348;42.710;23.378;2023-03-25T01:55:32;94783.16;;;6.19;100.00
20077;BME280;12348;42.710;23.378;2023-03-25T01:58:01;94786.09;;;6.22;100.00
20077;BME280;12348;42.710;23.378;2023-03-25T02:00:32;94781.56;;;6.13;100.00
20077;BME280;12348;42.710;23.378;2023-03-25T02:03:01;94781.28;;;6.19;100.00
20077;BME280;12348;42.710;23.378;2023-03-25T02:05:35;94782.66;;;6.01;100.00
20077;BME280;12348;42.710;23.378;2023-03-25T02:08:05;94777.31;;;6.06;100.00
20077;BME280;12348;42.710;23.378;2023-03-25T02:10:34;94774.13;;;5.94;100.00
20077;BME280;12348;42.710;23.378;2023-03-25T02:13:01;94766.34;;;5.93;100.00
20077;BME280;12348;42.710;23.378;2023-03-25T02:15:34;94766.63;;;6.06;100.00
20077;BME280;12348;42.710;23.378;2023-03-25T02:18:23;94765.28;;;6.04;100.00
20077;BME280;12348;42.710;23.378;2023-03-25T02:27:19;94763.44;;;5.94;100.00
20077;BME280;12348;42.710;23.378;2023-03-25T02:30:08;94763.13;;;5.86;100.00
20077;BME280;12348;42.710;23.378;2023-03-25T02:32:56;94771.44;;;5.79;100.00
20077;BME280;12348;42.710;23.378;2023-03-25T02:35:39;94767.94;;;5.73;100.00
20077;BME280;12348;42.710;23.378;2023-03-25T02:38:30;94762.88;;;5.72;100.00
20077;BME280;12348;42.710;23.378;2023-03-25T02:41:06;94759.13;;;5.63;100.00
20077;BME280;12348;42.710;23.378;2023-03-25T02:43:38;94764.47;;;5.63;100.00
20077;BME280;12348;42.710;23.378;2023-03-25T02:46:08;94761.00;;;5.62;100.00
20077;BME280;12348;42.710;23.378;2023-03-25T02:48:40;94763.94;;;5.61;100.00
20077;BME280;12348;42.710;23.378;2023-03-25T02:51:11;94762.88;;;5.62;100.00
20077;BME280;12348;42.710;23.378;2023-03-25T02:53:41;94762.88;;;5.67;100.00
20077;BME280;12348;42.710;23.378;2023-03-25T02:56:14;94763.13;;;5.70;100.00
20077;BME280;12348;42.710;23.378;2023-03-25T02:58:43;94755.13;;;6.01;100.00
20077;BME280;12348;42.710;23.378;2023-03-25T03:01:10;94755.41;;;5.99;100.00
20077;BME280;12348;42.710;23.378;2023-03-25T03:03:39;94748.69;;;6.07;100.00
20077;BME280;12348;42.710;23.378;2023-03-25T03:06:07;94746.81;;;5.82;100.00
20077;BME280;12348;42.710;23.378;2023-03-25T03:09:01;94750.59;;;5.76;100.00
20077;BME280;12348;42.710;23.378;2023-03-25T03:11:35;94742.03;;;5.79;100.00
20077;BME280;12348;42.710;23.378;2023-03-25T03:14:39;94747.63;;;5.77;100.00
20077;BME280;12348;42.710;23.378;2023-03-25T03:17:13;94751.91;;;5.73;100.00
20077;BME280;12348;42.710;23.378;2023-03-25T03:19:48;94754.03;;;5.81;100.00
20077;BME280;12348;42.710;23.378;2023-03-25T03:22:30;94761.25;;;5.81;100.00
20077;BME280;12348;42.710;23.378;2023-03-25T03:25:05;94756.47;;;5.73;100.00
20077;BME280;12348;42.710;23.378;2023-03-25T03:27:39;94754.31;;;5.70;100.00
20077;BME280;12348;42.710;23.378;2023-03-25T03:30:11;94756.75;;;5.61;100.00
20077;BME280;12348;42.710;23.378;2023-03-25T03:32:43;94751.66;;;5.54;100.00
20077;BME280;12348;42.710;23.378;2023-03-25T03:35:16;94753.25;;;5.50;100.00
20077;BME280;12348;42.710;23.378;2023-03-25T03:37:48;94752.72;;;5.43;100.00
20077;BME280;12348;42.710;23.378;2023-03-25T03:40:20;94757.00;;;5.39;100.00
20077;BME280;12348;42.710;23.378;2023-03-25T03:42:52;94748.44;;;5.37;100.00
20077;BME280;12348;42.710;23.378;2023-03-25T03:45:25;94752.72;;;5.43;100.00
20077;BME280;12348;42.710;23.378;2023-03-25T03:47:56;94765.25;;;5.48;100.00
20077;BME280;12348;42.710;23.378;2023-03-25T03:50:29;94760.19;;;5.36;100.00
20077;BME280;12348;42.710;23.378;2023-03-25T03:53:01;94759.38;;;5.41;100.00
20077;BME280;12348;42.710;23.378;2023-03-25T03:55:35;94748.19;;;5.44;100.00
20077;BME280;12348;42.710;23.378;2023-03-25T03:58:08;94753.78;;;5.42;100.00
20077;BME280;12348;42.710;23.378;2023-03-25T04:00:43;94754.31;;;5.29;100.00
20077;BME280;12348;42.710;23.378;2023-03-25T04:03:18;94758.31;;;5.21;100.00
20077;BME280;12348;42.710;23.378;2023-03-25T04:05:52;94758.56;;;5.20;100.00
20077;BME280;12348;42.710;23.378;2023-03-25T04:08:28;94752.72;;;5.23;100.00
20077;BME280;12348;42.710;23.378;2023-03-25T04:11:00;94759.09;;;5.17;100.00
20077;BME280;12348;42.710;23.378;2023-03-25T04:13:33;94760.72;;;5.28;100.00
20077;BME280;12348;42.710;23.378;2023-03-25T04:16:01;94757.25;;;5.32;100.00
20077;BME280;12348;42.710;23.378;2023-03-25T04:18:28;94757.25;;;5.32;100.00
20077;BME280;12348;42.710;23.378;2023-03-25T04:20:58;94755.66;;;5.42;100.00
20077;BME280;12348;42.710;23.378;2023-03-25T04:23:25;94759.13;;;5.47;100.00
20077;BME280;12348;42.710;23.378;2023-03-25T04:25:54;94758.06;;;5.53;100.00
20077;BME280;12348;42.710;23.378;2023-03-25T04:28:22;94752.72;;;5.64;100.00
20077;BME280;12348;42.710;23.378;2023-03-25T04:30:50;94759.69;;;5.95;100.00
20077;BME280;12348;42.710;23.378;2023-03-25T04:33:20;94762.09;;;6.82;100.00
20077;BME280;12348;42.710;23.378;2023-03-25T04:35:47;94762.88;;;7.37;100.00
20077;BME280;12348;42.710;23.378;2023-03-25T04:38:15;94756.28;;;7.93;100.00
20077;BME280;12348;42.710;23.378;2023-03-25T04:40:42;94759.84;;;8.89;100.00
20077;BME280;12348;42.710;23.378;2023-03-25T04:43:11;94754.81;;;9.77;100.00
20077;BME280;12348;42.710;23.378;2023-03-25T04:45:39;94759.03;;;10.16;100.00
20077;BME280;12348;42.710;23.378;2023-03-25T04:48:18;94765.81;;;10.87;100.00
20077;BME280;12348;42.710;23.378;2023-03-25T04:50:46;94774.44;;;11.26;100.00
20077;BME280;12348;42.710;23.378;2023-03-25T04:53:13;94760.88;;;11.89;100.00
20077;BME280;12348;42.710;23.378;2023-03-25T04:55:40;94759.25;;;13.13;94.28
20077;BME280;12348;42.710;23.378;2023-03-25T04:58:12;94764.94;;;13.69;80.93
20077;BME280;12348;42.710;23.378;2023-03-25T05:00:42;94760.00;;;13.97;78.24
20077;BME280;12348;42.710;23.378;2023-03-25T05:03:09;94762.44;;;15.01;73.43
20077;BME280;12348;42.710;23.378;2023-03-25T05:05:37;94768.31;;;16.04;67.21
20077;BME280;12348;42.710;23.378;2023-03-25T05:08:04;94768.94;;;16.10;64.63
20077;BME280;12348;42.710;23.378;2023-03-25T05:10:32;94769.91;;;16.71;61.94
20077;BME280;12348;42.710;23.378;2023-03-25T05:13:02;94770.41;;;16.86;61.52
20077;BME280;12348;42.710;23.378;2023-03-25T05:15:29;94762.66;;;17.61;59.29
20077;BME280;12348;42.710;23.378;2023-03-25T05:17:58;94763.09;;;17.88;56.56
20077;BME280;12348;42.710;23.378;2023-03-25T05:20:26;94758.53;;;18.76;54.93
20077;BME280;12348;42.710;23.378;2023-03-25T05:22:53;94766.41;;;19.76;52.25
20077;BME280;12348;42.710;23.378;2023-03-25T05:25:22;94755.88;;;20.52;49.35
20077;BME280;12348;42.710;23.378;2023-03-25T05:27:48;94763.91;;;21.83;45.87
20077;BME280;12348;42.710;23.378;2023-03-25T05:30:15;94754.75;;;22.32;44.36
20077;BME280;12348;42.710;23.378;2023-03-25T05:32:42;94762.13;;;20.95;45.53
20077;BME280;12348;42.710;23.378;2023-03-25T05:35:11;94765.78;;;22.36;43.45
20077;BME280;12348;42.710;23.378;2023-03-25T05:37:38;94752.78;;;23.52;41.54
20077;BME280;12348;42.710;23.378;2023-03-25T05:40:09;94755.25;;;23.64;41.19
20077;BME280;12348;42.710;23.378;2023-03-25T05:42:35;94765.03;;;24.27;40.21
20077;BME280;12348;42.710;23.378;2023-03-25T05:45:03;94760.13;;;24.79;39.45
20077;BME280;12348;42.710;23.378;2023-03-25T05:47:30;94770.28;;;24.47;39.79
20077;BME280;12348;42.710;23.378;2023-03-25T05:49:56;94768.72;;;23.76;40.83
20077;BME280;12348;42.710;23.378;2023-03-25T05:52:26;94756.41;;;24.25;40.07
20077;BME280;12348;42.710;23.378;2023-03-25T05:54:52;94763.84;;;24.17;39.69
20077;BME280;12348;42.710;23.378;2023-03-25T05:57:20;94757.22;;;24.36;39.98
20077;BME280;12348;42.710;23.378;2023-03-25T05:59:47;94758.28;;;25.44;38.23
20077;BME280;12348;42.710;23.378;2023-03-25T06:02:15;94760.31;;;24.17;39.81
20077;BME280;12348;42.710;23.378;2023-03-25T06:04:43;94761.34;;;24.85;38.90
20077;BME280;12348;42.710;23.378;2023-03-25T06:07:12;94761.44;;;25.28;38.25
20077;BME280;12348;42.710;23.378;2023-03-25T06:09:45;94759.47;;;23.51;41.01
20077;BME280;12348;42.710;23.378;2023-03-25T06:12:13;94753.97;;;24.09;40.46
20077;BME280;12348;42.710;23.378;2023-03-25T06:14:41;94759.53;;;24.27;40.15
20077;BME280;12348;42.710;23.378;2023-03-25T06:17:10;94757.38;;;23.85;40.62
20077;BME280;12348;42.710;23.378;2023-03-25T06:19:37;94753.59;;;23.56;41.45
20077;BME280;12348;42.710;23.378;2023-03-25T06:22:04;94754.66;;;24.86;39.93
20077;BME280;12348;42.710;23.378;2023-03-25T06:24:33;94760.91;;;24.62;39.58
20077;BME280;12348;42.710;23.378;2023-03-25T06:27:02;94751.94;;;25.61;38.72
20077;BME280;12348;42.710;23.378;2023-03-25T06:29:29;94762.63;;;26.94;36.56
20077;BME280;12348;42.710;23.378;2023-03-25T06:31:56;94768.31;;;26.58;36.43
20077;BME280;12348;42.710;23.378;2023-03-25T06:34:22;94766.97;;;26.88;36.10
20077;BME280;12348;42.710;23.378;2023-03-25T06:36:49;94760.94;;;26.19;36.53
20077;BME280;12348;42.710;23.378;2023-03-25T06:39:18;94762.19;;;26.95;35.76
20077;BME280;12348;42.710;23.378;2023-03-25T06:41:45;94759.47;;;26.88;36.74
20077;BME280;12348;42.710;23.378;2023-03-25T06:44:13;94757.53;;;26.85;35.97
20077;BME280;12348;42.710;23.378;2023-03-25T06:46:41;94763.03;;;27.48;36.09
20077;BME280;12348;42.710;23.378;2023-03-25T06:49:08;94763.44;;;26.87;36.72
20077;BME280;12348;42.710;23.378;2023-03-25T06:51:35;94766.16;;;26.94;35.79
20077;BME280;12348;42.710;23.378;2023-03-25T06:54:02;94766.84;;;24.89;38.66
20077;BME280;12348;42.710;23.378;2023-03-25T06:56:28;94771.13;;;23.88;40.23
20077;BME280;12348;42.710;23.378;2023-03-25T06:58:55;94770.03;;;24.04;39.24
20077;BME280;12348;42.710;23.378;2023-03-25T07:01:24;94772.78;;;25.09;37.37
20077;BME280;12348;42.710;23.378;2023-03-25T07:03:51;94766.00;;;26.46;37.00
20077;BME280;12348;42.710;23.378;2023-03-25T07:06:20;94772.72;;;26.34;36.17
20077;BME280;12348;42.710;23.378;2023-03-25T07:08:47;94770.06;;;25.20;36.65
20077;BME280;12348;42.710;23.378;2023-03-25T07:11:16;94773.06;;;24.64;38.07
20077;BME280;12348;42.710;23.378;2023-03-25T07:13:45;94773.50;;;24.74;37.12
20077;BME280;12348;42.710;23.378;2023-03-25T07:16:12;94770.56;;;24.24;38.49
20077;BME280;12348;42.710;23.378;2023-03-25T07:18:40;94747.09;;;26.33;36.27
20077;BME280;12348;42.710;23.378;2023-03-25T07:21:07;94751.22;;;25.39;36.93
20077;BME280;12348;42.710;23.378;2023-03-25T07:23:34;94751.44;;;23.79;39.73
20077;BME280;12348;42.710;23.378;2023-03-25T07:26:00;94768.13;;;23.56;39.91
20077;BME280;12348;42.710;23.378;2023-03-25T07:28:27;94762.91;;;23.92;40.14
20077;BME280;12348;42.710;23.378;2023-03-25T07:30:54;94760.59;;;25.03;38.37
20077;BME280;12348;42.710;23.378;2023-03-25T07:33:21;94752.69;;;24.94;38.36
20077;BME280;12348;42.710;23.378;2023-03-25T07:35:49;94762.88;;;24.72;39.66
20077;BME280;12348;42.710;23.378;2023-03-25T07:38:16;94756.72;;;25.22;38.58
20077;BME280;12348;42.710;23.378;2023-03-25T07:40:42;94749.44;;;24.49;39.49
20077;BME280;12348;42.710;23.378;2023-03-25T07:43:09;94746.84;;;25.67;38.15
20077;BME280;12348;42.710;23.378;2023-03-25T07:45:36;94748.03;;;25.73;37.99
20077;BME280;12348;42.710;23.378;2023-03-25T07:48:03;94742.50;;;25.73;38.03
20077;BME280;12348;42.710;23.378;2023-03-25T07:50:30;94741.63;;;27.00;35.91
20077;BME280;12348;42.710;23.378;2023-03-25T07:52:58;94744.59;;;28.55;34.21
20077;BME280;12348;42.710;23.378;2023-03-25T07:55:25;94740.50;;;27.53;34.43
20077;BME280;12348;42.710;23.378;2023-03-25T07:57:51;94736.13;;;27.52;35.17
20077;BME280;12348;42.710;23.378;2023-03-25T08:00:19;94727.81;;;27.97;33.62
20077;BME280;12348;42.710;23.378;2023-03-25T08:02:45;94729.75;;;26.37;36.70
20077;BME280;12348;42.710;23.378;2023-03-25T08:05:12;94723.22;;;26.82;35.68
20077;BME280;12348;42.710;23.378;2023-03-25T08:07:45;94719.50;;;26.33;36.42
20077;BME280;12348;42.710;23.378;2023-03-25T08:10:14;94713.59;;;26.28;36.87
20077;BME280;12348;42.710;23.378;2023-03-25T08:12:41;94712.88;;;27.91;35.42
20077;BME280;12348;42.710;23.378;2023-03-25T08:15:08;94715.00;;;28.14;34.12
20077;BME280;12348;42.710;23.378;2023-03-25T08:17:36;94703.84;;;27.42;35.97
20077;BME280;12348;42.710;23.378;2023-03-25T08:20:03;94701.28;;;27.17;35.36
20077;BME280;12348;42.710;23.378;2023-03-25T08:22:31;94708.31;;;27.70;34.68
20077;BME280;12348;42.710;23.378;2023-03-25T08:24:59;94703.88;;;26.82;35.31
20077;BME280;12348;42.710;23.378;2023-03-25T08:27:27;94703.06;;;26.86;36.71
20077;BME280;12348;42.710;23.378;2023-03-25T08:29:54;94694.75;;;28.82;33.97
20077;BME280;12348;42.710;23.378;2023-03-25T08:32:22;94692.09;;;27.75;36.10
20077;BME280;12348;42.710;23.378;2023-03-25T08:34:50;94685.34;;;27.31;35.69
20077;BME280;12348;42.710;23.378;2023-03-25T08:37:17;94700.56;;;24.21;40.46
20077;BME280;12348;42.710;23.378;2023-03-25T08:39:44;94690.53;;;24.97;40.35
20077;BME280;12348;42.710;23.378;2023-03-25T08:42:15;94698.16;;;26.48;36.88
20077;BME280;12348;42.710;23.378;2023-03-25T08:44:43;94687.13;;;26.38;37.09
20077;BME280;12348;42.710;23.378;2023-03-25T08:47:10;94682.72;;;27.10;36.76
20077;BME280;12348;42.710;23.378;2023-03-25T08:49:37;94673.19;;;27.63;35.78
20077;BME280;12348;42.710;23.378;2023-03-25T08:52:04;94684.44;;;28.82;34.12
20077;BME280;12348;42.710;23.378;2023-03-25T08:54:33;94676.66;;;30.54;31.84
20077;BME280;12348;42.710;23.378;2023-03-25T08:56:59;94676.94;;;29.33;32.77
20077;BME280;12348;42.710;23.378;2023-03-25T08:59:26;94673.56;;;27.65;35.48
20077;BME280;12348;42.710;23.378;2023-03-25T09:01:55;94675.38;;;24.15;39.37
20077;BME280;12348;42.710;23.378;2023-03-25T09:04:22;94665.34;;;24.87;40.13
20077;BME280;12348;42.710;23.378;2023-03-25T09:06:49;94652.72;;;25.01;39.28
20077;BME280;12348;42.710;23.378;2023-03-25T09:09:16;94657.31;;;26.00;39.08
20077;BME280;12348;42.710;23.378;2023-03-25T09:11:43;94655.94;;;27.00;36.90
20077;BME280;12348;42.710;23.378;2023-03-25T09:14:10;94644.53;;;27.84;36.05
20077;BME280;12348;42.710;23.378;2023-03-25T09:16:37;94641.13;;;30.06;33.35
20077;BME280;12348;42.710;23.378;2023-03-25T09:19:05;94641.13;;;30.46;32.35
20077;BME280;12348;42.710;23.378;2023-03-25T09:21:32;94639.94;;;31.15;31.81
20077;BME280;12348;42.710;23.378;2023-03-25T09:23:59;94640.19;;;30.12;31.59
20077;BME280;12348;42.710;23.378;2023-03-25T09:26:25;94624.13;;;29.40;33.25
20077;BME280;12348;42.710;23.378;2023-03-25T09:28:52;94626.63;;;29.55;33.28
20077;BME280;12348;42.710;23.378;2023-03-25T09:31:20;94631.59;;;29.20;32.98
20077;BME280;12348;42.710;23.378;2023-03-25T09:33:47;94627.81;;;29.54;33.43
20077;BME280;12348;42.710;23.378;2023-03-25T09:36:15;94630.97;;;28.27;35.52
20077;BME280;12348;42.710;23.378;2023-03-25T09:38:42;94623.88;;;26.61;36.99
20077;BME280;12348;42.710;23.378;2023-03-25T09:41:22;94615.47;;;27.27;36.77
20077;BME280;12348;42.710;23.378;2023-03-25T09:43:59;94620.28;;;27.95;36.00
20077;BME280;12348;42.710;23.378;2023-03-25T09:46:30;94616.06;;;29.69;34.62
20077;BME280;12348;42.710;23.378;2023-03-25T09:48:58;94604.47;;;30.87;32.67
20077;BME280;12348;42.710;23.378;2023-03-25T09:51:28;94614.31;;;28.31;34.86
20077;BME280;12348;42.710;23.378;2023-03-25T09:54:02;94609.69;;;28.21;35.42
20077;BME280;12348;42.710;23.378;2023-03-25T09:56:34;94610.50;;;27.49;36.18
20077;BME280;12348;42.710;23.378;2023-03-25T09:59:05;94597.00;;;26.69;37.30
20077;BME280;12348;42.710;23.378;2023-03-25T10:01:39;94597.16;;;25.56;38.43
20077;BME280;12348;42.710;23.378;2023-03-25T10:04:30;94594.13;;;26.20;37.73
20077;BME280;12348;42.710;23.378;2023-03-25T10:07:13;94600.63;;;25.74;38.08
20077;BME280;12348;42.710;23.378;2023-03-25T10:09:50;94589.59;;;25.85;38.08
20077;BME280;12348;42.710;23.378;2023-03-25T10:12:31;94584.19;;;25.46;38.06
20077;BME280;12348;42.710;23.378;2023-03-25T10:15:08;94586.53;;;24.15;40.38
20077;BME280;12348;42.710;23.378;2023-03-25T10:17:44;94571.69;;;24.66;39.87
20077;BME280;12348;42.710;23.378;2023-03-25T10:20:24;94573.59;;;24.23;38.26
20077;BME280;12348;42.710;23.378;2023-03-25T10:23:05;94570.50;;;24.67;37.54
20077;BME280;12348;42.710;23.378;2023-03-25T10:25:36;94561.06;;;24.61;37.77
20077;BME280;12348;42.710;23.378;2023-03-25T10:28:10;94556.72;;;24.49;38.35
20077;BME280;12348;42.710;23.378;2023-03-25T10:30:42;94559.06;;;24.94;37.51
20077;BME280;12348;42.710;23.378;2023-03-25T10:33:15;94555.09;;;25.05;36.94
20077;BME280;12348;42.710;23.378;2023-03-25T10:35:46;94553.56;;;25.19;36.78
20077;BME280;12348;42.710;23.378;2023-03-25T10:38:17;94545.31;;;24.76;36.45
20077;BME280;12348;42.710;23.378;2023-03-25T10:40:46;94548.00;;;25.36;35.43
20077;BME280;12348;42.710;23.378;2023-03-25T10:43:20;94541.97;;;25.63;34.89
20077;BME280;12348;42.710;23.378;2023-03-25T10:45:50;94532.41;;;26.55;33.98
20077;BME280;12348;42.710;23.378;2023-03-25T10:48:21;94528.50;;;27.66;33.56
20077;BME280;12348;42.710;23.378;2023-03-25T10:50:51;94522.94;;;28.00;33.38
20077;BME280;12348;42.710;23.378;2023-03-25T10:53:23;94518.25;;;27.33;33.94
20077;BME280;12348;42.710;23.378;2023-03-25T10:55:54;94525.59;;;27.08;33.23
20077;BME280;12348;42.710;23.378;2023-03-25T10:58:22;94516.69;;;27.31;32.43
20077;BME280;12348;42.710;23.378;2023-03-25T11:00:49;94515.22;;;27.54;32.52
20077;BME280;12348;42.710;23.378;2023-03-25T11:03:19;94511.41;;;28.33;31.67
20077;BME280;12348;42.710;23.378;2023-03-25T11:05:48;94511.06;;;27.39;34.25
20077;BME280;12348;42.710;23.378;2023-03-25T11:08:15;94509.97;;;26.91;34.81
20077;BME280;12348;42.710;23.378;2023-03-25T11:10:47;94503.75;;;26.80;34.87
20077;BME280;12348;42.710;23.378;2023-03-25T11:13:16;94494.72;;;27.82;34.77
20077;BME280;12348;42.710;23.378;2023-03-25T11:15:46;94498.81;;;26.05;35.67
20077;BME280;12348;42.710;23.378;2023-03-25T11:18:18;94481.00;;;26.13;35.13
20077;BME280;12348;42.710;23.378;2023-03-25T11:20:48;94486.66;;;26.51;34.16
20077;BME280;12348;42.710;23.378;2023-03-25T11:23:21;94482.84;;;26.30;35.28
20077;BME280;12348;42.710;23.378;2023-03-25T11:25:52;94476.88;;;25.83;36.21
20077;BME280;12348;42.710;23.378;2023-03-25T11:28:24;94470.34;;;25.52;36.51
20077;BME280;12348;42.710;23.378;2023-03-25T11:31:11;94468.09;;;25.22;36.73
20077;BME280;12348;42.710;23.378;2023-03-25T11:33:40;94476.03;;;25.06;37.02
20077;BME280;12348;42.710;23.378;2023-03-25T11:36:26;94463.84;;;24.89;36.99
20077;BME280;12348;42.710;23.378;2023-03-25T11:38:59;94460.25;;;25.17;36.58
20077;BME280;12348;42.710;23.378;2023-03-25T11:41:35;94456.81;;;24.77;38.31
20077;BME280;12348;42.710;23.378;2023-03-25T11:44:04;94456.06;;;24.23;38.15
20077;BME280;12348;42.710;23.378;2023-03-25T11:46:32;94450.13;;;24.71;36.33
20077;BME280;12348;42.710;23.378;2023-03-25T11:49:17;94445.78;;;24.81;37.03
20077;BME280;12348;42.710;23.378;2023-03-25T11:51:46;94445.06;;;24.45;36.84
20077;BME280;12348;42.710;23.378;2023-03-25T11:54:14;94430.50;;;24.23;37.23
20077;BME280;12348;42.710;23.378;2023-03-25T11:56:50;94439.53;;;24.23;36.93
20077;BME280;12348;42.710;23.378;2023-03-25T11:59:21;94432.47;;;23.93;37.64
20077;BME280;12348;42.710;23.378;2023-03-25T12:01:50;94427.75;;;24.19;38.07
20077;BME280;12348;42.710;23.378;2023-03-25T12:04:19;94431.69;;;24.47;37.52
20077;BME280;12348;42.710;23.378;2023-03-25T12:06:55;94429.31;;;24.45;37.08
20077;BME280;12348;42.710;23.378;2023-03-25T12:09:23;94419.91;;;23.92;37.36
20077;BME280;12348;42.710;23.378;2023-03-25T12:14:51;94410.47;;;24.01;37.64
20077;BME280;12348;42.710;23.378;2023-03-25T12:17:35;94415.19;;;24.04;38.09
20077;BME280;12348;42.710;23.378;2023-03-25T12:20:14;94408.38;;;23.26;38.45
20077;BME280;12348;42.710;23.378;2023-03-25T12:22:54;94410.25;;;22.93;38.46
20077;BME280;12348;42.710;23.378;2023-03-25T12:25:31;94414.81;;;22.71;39.04
20077;BME280;12348;42.710;23.378;2023-03-25T12:28:14;94410.41;;;22.53;39.19
20077;BME280;12348;42.710;23.378;2023-03-25T12:30:53;94416.19;;;22.33;39.51
20077;BME280;12348;42.710;23.378;2023-03-25T12:33:32;94423.34;;;22.00;39.81
20077;BME280;12348;42.710;23.378;2023-03-25T12:36:14;94420.56;;;21.93;40.18
20077;BME280;12348;42.710;23.378;2023-03-25T12:38:51;94418.94;;;21.85;40.89
20077;BME280;12348;42.710;23.378;2023-03-25T12:41:23;94417.75;;;22.34;40.17
20077;BME280;12348;42.710;23.378;2023-03-25T12:44:01;94421.66;;;22.33;40.25
20077;BME280;12348;42.710;23.378;2023-03-25T12:46:53;94420.06;;;22.32;39.56
20077;BME280;12348;42.710;23.378;2023-03-25T12:49:34;94419.88;;;22.11;39.92
20077;BME280;12348;42.710;23.378;2023-03-25T12:52:10;94415.88;;;21.97;40.00
20077;BME280;12348;42.710;23.378;2023-03-25T12:54:55;94414.41;;;22.11;39.75
20077;BME280;12348;42.710;23.378;2023-03-25T12:57:36;94408.34;;;21.87;40.53
20077;BME280;12348;42.710;23.378;2023-03-25T13:00:21;94409.59;;;21.93;40.23
20077;BME280;12348;42.710;23.378;2023-03-25T13:03:12;94411.72;;;22.14;39.80
20077;BME280;12348;42.710;23.378;2023-03-25T13:05:47;94407.72;;;22.05;39.72
20077;BME280;12348;42.710;23.378;2023-03-25T13:08:19;94407.78;;;22.12;39.91
20077;BME280;12348;42.710;23.378;2023-03-25T13:10:54;94413.50;;;21.92;40.79
20077;BME280;12348;42.710;23.378;2023-03-25T13:13:23;94416.00;;;22.12;40.75
20077;BME280;12348;42.710;23.378;2023-03-25T13:16:01;94411.81;;;21.81;40.84
20077;BME280;12348;42.710;23.378;2023-03-25T13:18:33;94409.91;;;21.81;40.82